Latest Weather Observations for Batchelor

IDD60801

Issued at 4:31 pm CST Tuesday 3 March 2015 (issued every 30 minutes, with the page automatically refreshed every 10 minutes)

About weather observations | Map of weather stations | Latest weather observations for NT | Other Formats
Station Details ID: 014272 Name: BATCHELOR AIRPORT Lat: -13.05 Lon: 131.03 Height: 104.0 m
Data from the previous 72 hours. | See also: Recent months at Batchelor
Date/Time
CST
Temp
°C
App
Temp
°C
Dew
Point
Rel
Hum
%
Delta-T
°C
Wind Press
QNH
hPa
Press
MSL
hPa
Rain
since 9 am
mm
Dir
 
Spd
km/h
Gust
km/h
Spd
kts
Gust
kts
03/04:30pm 30.2 34.0 23.4 67 4.7 NNE 9 17 5 9 1004.7 1003.9 0.0
03/04:00pm 30.4 34.3 24.3 70 4.3 NNE 11 20 6 11 1004.5 1003.7 0.0
03/03:30pm 29.9 34.5 24.8 74 3.6 N 9 15 5 8 1004.7 1003.9 0.0
03/03:00pm 30.6 34.2 24.3 69 4.4 NNE 13 20 7 11 1005.0 1004.2 0.0
03/02:30pm 30.0 33.9 24.2 71 4.1 NNE 11 19 6 10 1005.5 1004.7 0.0
03/02:00pm 29.1 33.2 24.0 74 3.5 NNE 9 19 5 10 1005.9 1005.2 0.0
03/01:30pm 30.1 33.2 22.8 65 5.0 NE 11 20 6 11 1006.0 1005.3 0.0
03/01:00pm 30.6 34.5 24.3 69 4.4 NE 11 20 6 11 1006.3 1005.6 0.0
03/12:30pm 30.6 33.7 23.5 66 4.9 ENE 13 20 7 11 1006.7 1006.0 0.0
03/12:00pm 29.9 32.7 23.6 69 4.4 NE 15 24 8 13 1007.0 1006.3 0.0
03/11:30am 29.5 33.3 24.1 72 3.8 NE 11 19 6 10 1007.2 1006.5 0.0
03/11:00am 28.9 32.3 24.0 75 3.4 ENE 13 22 7 12 1007.4 1006.7 0.0
03/10:30am 27.6 31.5 24.2 82 2.4 ENE 11 17 6 9 1007.5 1006.8 0.0
03/10:00am 27.2 31.7 23.9 82 2.3 E 7 11 4 6 1007.4 1006.7 0.0
03/09:30am 26.9 30.5 24.4 86 1.7 ESE 13 19 7 10 1007.1 1006.4 0.0
03/09:00am 26.3 29.3 24.0 87 1.6 ESE 15 22 8 12 1007.0 1006.3 17.4
03/08:30am 25.4 28.5 23.5 89 1.3 ESE 13 20 7 11 1006.6 1005.9 17.4
03/08:00am 25.0 28.0 23.4 91 1.1 ESE 13 19 7 10 1006.1 1005.4 17.4
03/07:30am 24.5 28.0 23.5 94 0.7 ESE 11 13 6 7 1005.7 1005.0 17.4
03/07:00am 24.1 27.8 23.2 95 0.6 ESE 9 11 5 6 1005.6 1004.8 17.4
03/06:30am 24.1 28.2 23.2 95 0.6 ESE 7 9 4 5 1005.2 1004.4 17.4
03/06:00am 24.1 28.2 23.2 95 0.6 ESE 7 9 4 5 1004.7 1003.9 17.4
03/05:30am 24.1 28.3 23.2 95 0.6 ESE 6 7 3 4 1004.5 1003.7 17.4
03/05:00am 24.0 28.6 23.1 95 0.6 SE 4 6 2 3 1004.1 1003.3 17.4
03/04:30am 23.9 28.4 23.0 95 0.6 SSE 4 7 2 4 1004.1 1003.3 17.4
03/04:00am 23.9 28.4 23.0 95 0.6 ESE 4 7 2 4 1004.4 1003.6 17.4
03/03:30am 23.8 27.3 22.8 94 0.7 SE 9 13 5 7 1004.8 1004.0 17.0
03/03:00am 23.8 27.7 23.0 95 0.5 SE 7 9 4 5 1004.8 1004.0 17.0
03/02:30am 23.8 28.3 23.0 95 0.5 SE 4 6 2 3 1004.9 1004.1 17.0
03/02:00am 23.9 29.2 23.0 95 0.6 CALM 0 0 0 0 1005.1 1004.3 17.0
03/01:30am 23.9 28.8 23.0 95 0.6 S 2 4 1 2 1005.5 1004.7 17.0
03/01:00am 24.0 28.6 23.1 95 0.6 S 4 6 2 3 1005.5 1004.7 17.0
03/12:30am 24.2 28.9 23.3 95 0.6 S 4 7 2 4 1005.9 1005.2 17.0
03/12:00am 24.4 29.2 23.5 95 0.6 SW 4 7 2 4 1006.4 1005.7 17.0
 
Date/Time
CST
Temp
°C
App
Temp
°C
Dew
Point
Rel
Hum
%
Delta-T
°C
Wind Press
QNH
hPa
Press
MSL
hPa
Rain
since 9 am
mm
Dir
 
Spd
km/h
Gust
km/h
Spd
kts
Gust
kts
02/11:30pm 24.3 29.4 23.4 95 0.6 WSW 2 4 1 2 1006.5 1005.8 17.0
02/11:00pm 24.3 29.4 23.4 95 0.6 NW 2 4 1 2 1006.4 1005.7 17.0
02/10:30pm 24.2 28.9 23.3 95 0.6 NW 4 6 2 3 1006.2 1005.5 17.0
02/10:00pm 24.1 28.7 23.2 95 0.6 N 4 6 2 3 1006.3 1005.6 16.6
02/09:30pm 24.1 29.1 23.2 95 0.6 SSW 2 6 1 3 1006.2 1005.5 14.4
02/09:00pm 23.9 28.8 23.0 95 0.6 W 2 4 1 2 1005.7 1005.0 13.6
02/08:30pm 23.9 28.1 23.2 96 0.5 NW 6 7 3 4 1005.2 1004.4 13.6
02/08:00pm 23.8 28.7 23.0 95 0.5 SW 2 4 1 2 1005.6 1004.8 13.2
02/07:30pm 23.9 28.8 23.0 95 0.6 NE 2 4 1 2 1005.3 1004.5 10.8
02/07:00pm 23.8 27.8 22.8 94 0.7 WNW 6 11 3 6 1004.6 1003.8 8.4
02/06:30pm 24.2 27.4 23.0 93 0.8 NW 11 17 6 9 1004.1 1003.3 0.8
02/06:00pm 25.2 29.0 22.7 86 1.7 NW 7 13 4 7 1003.6 1002.8 0.2
02/05:30pm 25.2 27.7 22.5 85 1.8 NW 13 24 7 13 1003.0 1002.2 0.2
02/05:00pm 25.8 28.5 23.5 87 1.6 NNW 15 22 8 12 1003.1 1002.3 0.2
02/04:30pm 26.7 30.8 24.0 85 1.9 NW 9 15 5 8 1003.2 1002.4 0.2
02/04:00pm 27.1 30.8 23.3 80 2.6 WNW 9 19 5 10 1003.1 1002.3 0.2
02/03:30pm 27.8 30.0 23.2 76 3.2 W 17 26 9 14 1003.2 1002.4 0.2
02/03:00pm 31.4 36.6 24.8 68 4.7 SSW 6 9 3 5 1003.3 1002.5 0.2
02/02:30pm 30.8 36.2 25.2 72 4.0 SSW 6 9 3 5 1003.6 1002.8 0.2
02/02:00pm 30.8 35.6 24.4 68 4.5 S 7 15 4 8 1004.4 1003.6 0.2
02/01:30pm 31.3 37.2 25.9 73 3.9 SSW 6 15 3 8 1004.5 1003.7 0.2
02/01:00pm 30.3 35.5 25.1 73 3.7 SSW 7 11 4 6 1005.1 1004.3 0.2
02/12:30pm 29.7 34.6 24.3 73 3.8 S 6 9 3 5 1005.9 1005.2 0.2
02/12:00pm 29.1 34.7 24.9 78 3.0 SSW 4 7 2 4 1006.6 1005.9 0.2
02/11:30am 28.7 34.8 25.1 81 2.5 S 2 6 1 3 1006.6 1005.9 0.2
02/11:00am 28.3 34.3 25.5 85 2.0 SSE 4 6 2 3 1006.8 1006.1 0.0
02/10:30am 27.6 33.2 25.4 88 1.6 ESE 6 9 3 5 1007.1 1006.4 0.0
02/10:00am 27.3 33.1 25.7 91 1.1 ESE 6 9 3 5 1007.3 1006.6 0.0
02/09:30am 26.7 32.2 25.3 92 1.0 ESE 6 7 3 4 1007.4 1006.7 0.0
02/09:00am 26.0 31.3 25.0 94 0.7 ENE 6 7 3 4 1007.5 1006.8 0.4
02/08:30am 25.7 30.8 24.7 94 0.7 ENE 6 7 3 4 1007.1 1006.4 0.4
02/08:00am 25.6 31.1 24.7 95 0.6 E 4 6 2 3 1006.8 1006.1 0.4
02/07:30am 25.5 30.6 24.6 95 0.6 E 6 7 3 4 1006.5 1005.8 0.4
02/07:00am 25.4 30.8 24.5 95 0.6 ESE 4 6 2 3 1006.0 1005.3 0.4
02/06:30am 25.4 31.5 24.4 94 0.7 CALM 0 0 0 0 1005.8 1005.1 0.4
02/06:00am 25.3 31.3 24.3 94 0.7 CALM 0 0 0 0 1005.6 1004.8 0.4
02/05:30am 25.3 30.6 24.3 94 0.7 E 4 4 2 2 1005.3 1004.5 0.4
02/05:00am 25.3 31.3 24.3 94 0.7 CALM 0 0 0 0 1005.3 1004.5 0.4
02/04:30am 25.3 31.3 24.3 94 0.7 CALM 0 0 0 0 1005.0 1004.2 0.4
02/04:00am 25.2 31.2 24.2 94 0.7 CALM 0 4 0 2 1004.7 1003.9 0.2
02/03:30am 25.1 30.6 24.1 94 0.7 SSE 2 2 1 1 1004.7 1003.9 0.2
02/03:00am 25.1 30.6 24.1 94 0.7 SSE 2 4 1 2 1005.0 1004.2 0.2
02/02:30am 25.1 30.9 23.9 93 0.8 CALM 0 2 0 1 1005.4 1004.6 0.2
02/02:00am 25.1 30.0 23.7 92 1.0 WSW 4 6 2 3 1005.8 1005.1 0.2
02/01:30am 25.3 30.8 24.1 93 0.8 WNW 2 4 1 2 1006.2 1005.5 0.2
02/01:00am 25.4 31.4 24.2 93 0.8 CALM 0 4 0 2 1007.2 1006.5 0.2
02/12:30am 25.3 30.8 24.1 93 0.8 N 2 2 1 1 1007.6 1006.9 0.2
02/12:00am 25.3 31.1 23.9 92 1.0 CALM 0 6 0 3 1007.7 1007.0 0.2
 
Date/Time
CST
Temp
°C
App
Temp
°C
Dew
Point
Rel
Hum
%
Delta-T
°C
Wind Press
QNH
hPa
Press
MSL
hPa
Rain
since 9 am
mm
Dir
 
Spd
km/h
Gust
km/h
Spd
kts
Gust
kts
01/11:30pm 25.3 30.3 23.9 92 1.0 S 4 6 2 3 1007.6 1006.9 0.2
01/11:00pm 25.6 31.4 24.0 91 1.1 CALM 0 0 0 0 1007.7 1007.0 0.2
01/10:30pm 25.6 30.7 24.0 91 1.1 NW 4 4 2 2 1007.5 1006.8 0.2
01/10:00pm 25.6 30.9 23.7 89 1.3 SSW 2 6 1 3 1007.7 1007.0 0.2
01/09:30pm 25.8 31.0 23.5 87 1.6 NNE 2 7 1 4 1007.3 1006.6 0.2
01/09:00pm 26.1 30.1 22.8 82 2.2 SSE 6 9 3 5 1007.4 1006.7 0.0
01/08:30pm 26.5 31.8 23.0 81 2.4 CALM 0 0 0 0 1007.8 1007.1 0.0
01/08:00pm 26.5 30.5 22.8 80 2.5 WSW 6 9 3 5 1005.9 1005.2 0.0
01/07:30pm 26.9 30.4 22.9 79 2.7 WSW 9 17 5 9 1005.7 1005.0 0.0
01/07:00pm 27.3 31.5 23.5 80 2.6 WSW 7 11 4 6 1004.8 1004.0 0.0
01/06:30pm 27.9 31.5 23.1 75 3.3 WSW 9 19 5 10 1005.3 1004.5 0.0
01/06:00pm 28.6 31.8 23.1 72 3.8 WSW 11 19 6 10 1004.9 1004.1 0.0
01/05:30pm 29.1 32.5 24.0 74 3.6 W 13 19 7 10 1004.3 1003.5 0.0
01/05:00pm 31.4 35.0 24.3 66 5.0 WNW 13 20 7 11 1003.8 1003.0 0.0
01/04:30pm 30.6 33.1 23.8 67 4.7 WNW 17 26 9 14 1004.1 1003.3 0.0
01/04:00pm 30.6 32.6 24.0 68 4.6 WNW 20 32 11 17 1003.5 1002.7 0.0
01/03:30pm 31.6 34.3 23.4 61 5.7 WNW 15 32 8 17 1003.9 1003.1 0.0
01/03:00pm 34.0 38.7 23.4 54 7.4 NW 4 13 2 7 1003.7 1002.9 0.0
01/02:30pm 34.3 38.6 23.3 52 7.7 W 6 11 3 6 1004.3 1003.5 0.0
01/02:00pm 33.4 38.1 23.4 55 7.0 W 4 7 2 4 1004.8 1004.0 0.0
01/01:30pm 33.4 37.8 23.4 55 7.0 W 6 11 3 6 1005.7 1005.0 0.0
01/01:00pm 33.3 37.4 23.0 54 7.1 W 6 11 3 6 1006.2 1005.5 0.0
01/12:30pm 32.9 37.1 23.5 57 6.6 NW 7 15 4 8 1006.8 1006.1 0.0
01/12:00pm 32.3 36.4 23.3 59 6.3 W 7 11 4 6 1007.3 1006.6 0.0
01/11:30am 32.4 36.8 24.4 62 5.6 WNW 9 15 5 8 1007.4 1006.7 0.0
01/11:00am 31.5 35.9 24.4 66 5.0 WNW 9 15 5 8 1007.8 1007.1 0.0
01/10:30am 31.2 35.4 24.1 66 5.0 W 9 13 5 7 1007.8 1007.1 0.0
01/10:00am 30.5 35.6 24.9 72 3.9 SW 7 15 4 8 1007.9 1007.2 0.0
01/09:30am 29.4 34.7 25.2 78 3.0 W 7 13 4 7 1007.9 1007.2 0.0
01/09:00am 28.9 34.4 25.3 81 2.5 WSW 6 15 3 8 1008.1 1007.4 0.2
01/08:30am 27.6 33.2 25.4 88 1.6 WSW 6 11 3 6 1008.0 1007.3 0.2
01/08:00am 26.7 32.7 25.5 93 0.8 WSW 4 6 2 3 1007.5 1006.8 0.2
01/07:30am 26.2 32.6 25.5 96 0.5 W 2 6 1 3 1007.2 1006.5 0.2
01/07:00am 25.6 31.2 24.9 96 0.5 NW 4 6 2 3 1006.7 1006.0 0.2
01/06:30am 25.8 31.6 25.1 96 0.5 NW 4 6 2 3 1006.3 1005.6 0.2
01/06:00am 25.7 31.3 24.8 95 0.6 W 4 6 2 3 1005.9 1005.1 0.2
01/05:30am 25.9 31.6 25.0 95 0.6 W 4 4 2 2 1005.7 1004.9 0.2
01/05:00am 26.0 31.4 25.1 95 0.6 WNW 6 9 3 5 1005.3 1004.5 0.2
01/04:30am 26.1 31.5 25.2 95 0.6 W 6 9 3 5 1005.5 1004.7 0.2
01/04:00am 26.1 31.4 25.2 95 0.6 WNW 7 11 4 6 1005.5 1004.7 0.2
01/03:30am 26.1 31.5 25.1 94 0.7 W 6 7 3 4 1006.0 1005.2 0.2
01/03:00am 26.1 31.7 24.9 93 0.8 W 4 6 2 3 1006.1 1005.4 0.2
01/02:30am 26.3 31.6 24.9 92 1.0 W 6 11 3 6 1006.4 1005.7 0.2
01/02:00am 26.3 31.4 24.7 91 1.1 WNW 6 9 3 5 1006.5 1005.8 0.2
01/01:30am 26.2 31.8 24.8 92 1.0 W 4 6 2 3 1006.8 1006.1 0.2
01/01:00am 26.3 31.8 24.7 91 1.1 W 4 6 2 3 1007.0 1006.3 0.2
01/12:30am 26.4 31.9 24.6 90 1.3 W 4 6 2 3 1007.4 1006.7 0.2
01/12:00am 26.4 32.0 24.8 91 1.1 W 4 6 2 3 1007.9 1007.2 0.2
 
Date/Time
CST
Temp
°C
App
Temp
°C
Dew
Point
Rel
Hum
%
Delta-T
°C
Wind Press
QNH
hPa
Press
MSL
hPa
Rain
since 9 am
mm
Dir
 
Spd
km/h
Gust
km/h
Spd
kts
Gust
kts
28/11:30pm 26.5 31.8 24.9 91 1.1 W 6 9 3 5 1008.3 1007.6 0.2
28/11:00pm 26.6 31.9 25.0 91 1.1 W 6 7 3 4 1008.5 1007.8 0.2
28/10:30pm 26.8 31.9 25.0 90 1.3 W 7 11 4 6 1008.0 1007.3 0.2
28/10:00pm 26.8 32.4 24.8 89 1.4 WNW 4 6 2 3 1008.1 1007.4 0.2
28/09:30pm 27.0 32.6 24.8 88 1.5 W 4 7 2 4 1008.0 1007.3 0.2
28/09:00pm 27.0 32.6 24.8 88 1.5 WNW 4 4 2 2 1007.3 1006.6 0.2
28/08:30pm 27.2 33.1 24.7 86 1.7 W 2 4 1 2 1006.2 1005.5 0.2
28/08:00pm 27.6 32.5 24.4 83 2.2 W 6 9 3 5 1005.7 1004.9 0.2
28/07:30pm 27.9 32.6 23.9 79 2.8 WNW 6 9 3 5 1005.3 1004.5 0.2
28/07:00pm 28.3 32.5 23.4 75 3.4 WNW 7 13 4 7 1005.4 1004.6 0.2
28/06:30pm 29.1 32.3 23.1 70 4.1 WNW 11 15 6 8 1005.2 1004.4 0.2
28/06:00pm 29.8 32.5 22.8 66 4.8 WNW 13 22 7 12 1005.1 1004.3 0.2
28/05:30pm 29.4 32.3 22.4 66 4.8 W 11 20 6 11 1004.5 1003.7 0.2
28/05:00pm 29.5 31.4 22.7 67 4.6 W 17 28 9 15 1005.4 1004.6 0.2

Other Formats:

Comma delimited format used in spreadsheet applications
http://www.bom.gov.au/fwo/IDD60801/IDD60801.94125.axf

JavaScript Object Notation format (JSON) in row-major order
http://www.bom.gov.au/fwo/IDD60801/IDD60801.94125.json